Terminal Aerodrome Forecast
Issued by NWS

Home | Current Version | Previous Version | Text Only | Print | Product List | Glossary On
Versions: 1 2 3 4 5 6 7 8 9 10 11 12 13 14 15 16 17 18 19 20 21 22 23 24 25 26 27
867
FTUS46 KEKA 190537
TAFCEC
TAF
KCEC 190537Z 1906/2006 18006KT P6SM VCTS SCT024 BKN040CB OVC080
      TEMPO 1906/1910 3SM TSRAGS SCT015 OVC025CB
     FM191000 19008KT 4SM -SHRA BR VCTS SCT015 BKN025CB OVC050
     FM191800 18010KT 6SM -SHRA VCTS SCT025CB BKN050 OVC100
     FM200000 17005KT P6SM OVC050 PROB30 2000/2004 P6SM -SHRA
      OVC050=

USA.gov is the U.S. government's official web portal to all federal, state and local government web resources and services.